TimeEDT,TemperatureF,Dew PointF,Humidity,Sea Level PressureIn,VisibilityMPH,Wind Direction,Wind SpeedMPH,Gust SpeedMPH,PrecipitationIn,Events,Conditions,WindDirDegrees,DateUTC
12:52 AM,64.0,61.0,90,29.91,7.0,Calm,Calm,-,N/A,,Clear,0,2012-10-06 04:52:00
1:52 AM,62.1,60.1,93,29.91,5.0,Calm,Calm,-,N/A,,Clear,0,2012-10-06 05:52:00
2:52 AM,62.1,60.1,93,29.88,4.0,Calm,Calm,-,N/A,,Clear,0,2012-10-06 06:52:00
3:52 AM,60.1,57.9,93,29.88,4.0,Calm,Calm,-,N/A,,Clear,0,2012-10-06 07:52:00
4:31 AM,60.8,59.0,94,29.87,2.0,Calm,Calm,-,N/A,,Clear,0,2012-10-06 08:31:00
4:44 AM,60.8,59.0,94,29.87,4.0,Calm,Calm,-,N/A,,Clear,0,2012-10-06 08:44:00
4:52 AM,61.0,57.9,90,29.88,4.0,Calm,Calm,-,N/A,,Clear,0,2012-10-06 08:52:00
5:24 AM,57.2,57.2,100,29.87,2.0,Calm,Calm,-,N/A,,Clear,0,2012-10-06 09:24:00
5:36 AM,59.0,57.2,94,29.87,4.0,Calm,Calm,-,N/A,,Clear,0,2012-10-06 09:36:00
5:48 AM,59.0,57.2,94,29.86,2.5,Calm,Calm,-,N/A,,Clear,0,2012-10-06 09:48:00
5:52 AM,59.0,57.0,93,29.87,4.0,Calm,Calm,-,N/A,,Clear,0,2012-10-06 09:52:00
6:52 AM,64.0,60.1,87,29.86,6.0,SW,6.9,-,N/A,,Clear,220,2012-10-06 10:52:00
7:52 AM,66.9,61.0,81,29.86,9.0,SSW,12.7,-,N/A,,Clear,210,2012-10-06 11:52:00
8:52 AM,69.1,61.0,75,29.85,10.0,SSW,9.2,-,N/A,,Clear,210,2012-10-06 12:52:00
9:52 AM,71.1,62.1,73,29.84,10.0,SW,10.4,-,N/A,,Clear,220,2012-10-06 13:52:00
10:52 AM,73.9,62.1,66,29.82,10.0,SW,9.2,-,N/A,,Clear,220,2012-10-06 14:52:00
11:52 AM,75.9,62.1,62,29.80,10.0,SW,11.5,-,N/A,,Clear,220,2012-10-06 15:52:00
12:52 PM,77.0,62.1,60,29.78,10.0,SSW,15.0,-,N/A,,Clear,210,2012-10-06 16:52:00
1:52 PM,78.1,63.0,60,29.75,10.0,SW,12.7,-,N/A,,Clear,220,2012-10-06 17:52:00
2:52 PM,77.0,63.0,62,29.75,10.0,SW,12.7,-,N/A,,Mostly Cloudy,220,2012-10-06 18:52:00
3:52 PM,73.9,64.0,71,29.75,10.0,WSW,8.1,-,N/A,,Overcast,240,2012-10-06 19:52:00
4:52 PM,73.9,57.9,57,29.77,10.0,WSW,11.5,21.9,N/A,,Overcast,250,2012-10-06 20:52:00
5:52 PM,66.9,54.0,63,29.82,10.0,NW,16.1,26.5,N/A,,Partly Cloudy,310,2012-10-06 21:52:00
6:52 PM,62.1,53.1,72,29.85,10.0,NNW,11.5,-,N/A,,Mostly Cloudy,340,2012-10-06 22:52:00
7:52 PM,60.1,51.1,72,29.90,10.0,NW,5.8,-,N/A,,Partly Cloudy,310,2012-10-06 23:52:00
8:11 PM,60.8,51.8,72,29.91,10.0,WNW,6.9,-,N/A,,Mostly Cloudy,300,2012-10-07 00:11:00
8:32 PM,59.0,50.0,72,29.92,10.0,WNW,9.2,-,N/A,,Scattered Clouds,290,2012-10-07 00:32:00
8:52 PM,59.0,46.9,64,29.92,10.0,WNW,5.8,-,N/A,,Clear,290,2012-10-07 00:52:00
9:52 PM,55.9,45.0,67,29.96,10.0,West,3.5,-,N/A,,Clear,280,2012-10-07 01:52:00
10:52 PM,55.0,44.1,67,29.97,10.0,Calm,Calm,-,N/A,,Clear,0,2012-10-07 02:52:00
11:52 PM,54.0,44.1,69,29.98,10.0,Calm,Calm,-,N/A,,Clear,0,2012-10-07 03:52:00